Terminal Aerodrome Forecast
Issued by NWS Hastings, NE

Home | Current Version | Previous Version | Text Only | Print | Product List | Glossary On
Versions: 1 2 3 4 5 6 7 8 9 10 11 12 13 14 15 16
000
FTUS43 KGID 220532
TAFGRI
TAF
KGRI 220532Z 2206/2306 04024G33KT 6SM BR OVC005
     FM220900 01025G35KT 1 1/2SM -SN OVC003
     FM221100 35029G40KT 1/4SM +SN BLSN OVC005
     FM221800 34028G41KT 3/4SM BLSN BKN015
     FM222300 33020G30KT 5SM BLSN SCT130
     FM230200 32016KT P6SM FEW250=

USA.gov is the U.S. government's official web portal to all federal, state and local government web resources and services.